KRZL

Jasper County Airport

Rensselaer, Indiana, USA
METAR KRZL 241335Z AUTO 17005KT 10SM CLR 22/08 A3023 RMK AO2
Observed Flight Rules
May-24 @ 13:35 UTC (19 minutes ago) Visual Flight Rules
Wind Visibility Clouds
170° at 5 knots 10 miles
  • Clear skies
Temperatures Readings
Current 22°C / 72°F
Dewpoint 8°C / 46°F
Humidity 41%
Altimeter 30.23" Hg
Pressure 1024 hPa
Elevation 213
METAR KRZL 241335Z AUTO 17005KT 10SM CLR 22/08 A3023 RMK AO2
Observed Flight Rules
May-24 @ 13:35 UTC
(19 minutes ago)
VFR
Wind Visibility
170° at 5 knots 10 miles
Clouds
  • Clear skies
Temperature Dewpoint
22°C / 72°F 8°C / 46°F
Humidity Altimeter Pressure
41% 30.23" Hg 1024 hPa